sensor_id;sensor_type;location;lat;lon;timestamp;P1;durP1;ratioP1;P2;durP2;ratioP2
75603;SDS011;64187;51.010;13.792;2023-04-07T00:01:00;11.32;;;7.65;;
75603;SDS011;64187;51.010;13.792;2023-04-07T00:05:59;11.18;;;8.80;;
75603;SDS011;64187;51.010;13.792;2023-04-07T00:10:58;12.02;;;8.52;;
75603;SDS011;64187;51.010;13.792;2023-04-07T00:15:57;8.80;;;7.30;;
75603;SDS011;64187;51.010;13.792;2023-04-07T00:20:56;11.80;;;8.32;;
75603;SDS011;64187;51.010;13.792;2023-04-07T00:25:55;10.70;;;8.32;;
75603;SDS011;64187;51.010;13.792;2023-04-07T00:30:53;12.25;;;7.63;;
75603;SDS011;64187;51.010;13.792;2023-04-07T00:35:52;9.00;;;7.03;;
75603;SDS011;64187;51.010;13.792;2023-04-07T00:40:58;9.07;;;6.18;;
75603;SDS011;64187;51.010;13.792;2023-04-07T00:45:57;8.18;;;6.80;;
75603;SDS011;64187;51.010;13.792;2023-04-07T00:50:56;8.10;;;6.50;;
75603;SDS011;64187;51.010;13.792;2023-04-07T00:55:55;7.75;;;6.47;;
75603;SDS011;64187;51.010;13.792;2023-04-07T01:00:58;7.63;;;6.07;;
75603;SDS011;64187;51.010;13.792;2023-04-07T01:06:00;8.05;;;6.25;;
75603;SDS011;64187;51.010;13.792;2023-04-07T01:11:09;8.98;;;6.60;;
75603;SDS011;64187;51.010;13.792;2023-04-07T01:21:34;8.93;;;5.88;;
75603;SDS011;64187;51.010;13.792;2023-04-07T01:26:35;9.77;;;7.00;;
75603;SDS011;64187;51.010;13.792;2023-04-07T01:31:36;8.40;;;6.57;;
75603;SDS011;64187;51.010;13.792;2023-04-07T01:36:38;7.82;;;6.18;;
75603;SDS011;64187;51.010;13.792;2023-04-07T01:41:38;7.95;;;5.32;;
75603;SDS011;64187;51.010;13.792;2023-04-07T01:46:39;9.25;;;6.32;;
75603;SDS011;64187;51.010;13.792;2023-04-07T01:51:38;7.97;;;5.43;;
75603;SDS011;64187;51.010;13.792;2023-04-07T01:56:38;8.82;;;5.47;;
75603;SDS011;64187;51.010;13.792;2023-04-07T02:01:37;7.28;;;6.18;;
75603;SDS011;64187;51.010;13.792;2023-04-07T02:06:41;6.50;;;5.43;;
75603;SDS011;64187;51.010;13.792;2023-04-07T02:11:49;6.10;;;5.22;;
75603;SDS011;64187;51.010;13.792;2023-04-07T02:16:50;8.00;;;5.68;;
75603;SDS011;64187;51.010;13.792;2023-04-07T02:21:50;8.32;;;6.28;;
75603;SDS011;64187;51.010;13.792;2023-04-07T02:26:50;6.97;;;5.68;;
75603;SDS011;64187;51.010;13.792;2023-04-07T02:31:49;7.57;;;5.70;;
75603;SDS011;64187;51.010;13.792;2023-04-07T02:36:48;7.03;;;5.43;;
75603;SDS011;64187;51.010;13.792;2023-04-07T02:41:46;8.05;;;5.28;;
75603;SDS011;64187;51.010;13.792;2023-04-07T02:46:45;7.28;;;4.95;;
75603;SDS011;64187;51.010;13.792;2023-04-07T02:51:44;8.27;;;5.68;;
75603;SDS011;64187;51.010;13.792;2023-04-07T02:56:44;9.00;;;5.05;;
75603;SDS011;64187;51.010;13.792;2023-04-07T03:01:43;9.25;;;5.53;;
75603;SDS011;64187;51.010;13.792;2023-04-07T03:06:42;6.43;;;5.40;;
75603;SDS011;64187;51.010;13.792;2023-04-07T03:11:45;5.75;;;4.60;;
75603;SDS011;64187;51.010;13.792;2023-04-07T03:16:44;6.55;;;5.72;;
75603;SDS011;64187;51.010;13.792;2023-04-07T03:21:44;7.80;;;5.65;;
75603;SDS011;64187;51.010;13.792;2023-04-07T03:26:43;7.10;;;5.60;;
75603;SDS011;64187;51.010;13.792;2023-04-07T03:31:52;6.68;;;5.00;;
75603;SDS011;64187;51.010;13.792;2023-04-07T03:36:54;7.15;;;5.45;;
75603;SDS011;64187;51.010;13.792;2023-04-07T03:41:56;7.80;;;5.28;;
75603;SDS011;64187;51.010;13.792;2023-04-07T03:46:59;6.75;;;5.03;;
75603;SDS011;64187;51.010;13.792;2023-04-07T03:52:00;6.95;;;4.78;;
75603;SDS011;64187;51.010;13.792;2023-04-07T03:57:00;6.38;;;4.90;;
75603;SDS011;64187;51.010;13.792;2023-04-07T04:02:03;6.97;;;5.13;;
75603;SDS011;64187;51.010;13.792;2023-04-07T04:07:02;7.80;;;5.10;;
75603;SDS011;64187;51.010;13.792;2023-04-07T04:12:21;6.90;;;4.75;;
75603;SDS011;64187;51.010;13.792;2023-04-07T04:17:31;6.38;;;5.05;;
75603;SDS011;64187;51.010;13.792;2023-04-07T04:22:30;8.30;;;4.90;;
75603;SDS011;64187;51.010;13.792;2023-04-07T04:27:29;8.75;;;5.10;;
75603;SDS011;64187;51.010;13.792;2023-04-07T04:32:35;8.13;;;5.55;;
75603;SDS011;64187;51.010;13.792;2023-04-07T04:37:35;7.57;;;5.43;;
75603;SDS011;64187;51.010;13.792;2023-04-07T04:42:39;6.43;;;5.18;;
75603;SDS011;64187;51.010;13.792;2023-04-07T04:47:41;6.30;;;4.82;;
75603;SDS011;64187;51.010;13.792;2023-04-07T04:52:42;6.70;;;5.60;;
75603;SDS011;64187;51.010;13.792;2023-04-07T04:57:49;6.88;;;4.80;;
75603;SDS011;64187;51.010;13.792;2023-04-07T05:02:54;10.68;;;5.95;;
75603;SDS011;64187;51.010;13.792;2023-04-07T05:07:55;7.82;;;5.72;;
75603;SDS011;64187;51.010;13.792;2023-04-07T05:12:58;7.07;;;5.32;;
75603;SDS011;64187;51.010;13.792;2023-04-07T05:17:57;7.05;;;4.90;;
75603;SDS011;64187;51.010;13.792;2023-04-07T05:22:58;7.63;;;5.30;;
75603;SDS011;64187;51.010;13.792;2023-04-07T05:28:02;8.15;;;5.18;;
75603;SDS011;64187;51.010;13.792;2023-04-07T05:33:02;8.15;;;5.45;;
75603;SDS011;64187;51.010;13.792;2023-04-07T05:38:10;8.93;;;5.18;;
75603;SDS011;64187;51.010;13.792;2023-04-07T05:43:10;7.95;;;5.15;;
75603;SDS011;64187;51.010;13.792;2023-04-07T05:48:09;9.48;;;5.60;;
75603;SDS011;64187;51.010;13.792;2023-04-07T05:53:13;6.20;;;4.90;;
75603;SDS011;64187;51.010;13.792;2023-04-07T05:58:13;7.18;;;5.18;;
75603;SDS011;64187;51.010;13.792;2023-04-07T06:03:18;8.15;;;5.63;;
75603;SDS011;64187;51.010;13.792;2023-04-07T06:08:25;7.57;;;5.10;;
75603;SDS011;64187;51.010;13.792;2023-04-07T06:13:24;8.88;;;5.90;;
75603;SDS011;64187;51.010;13.792;2023-04-07T06:18:23;10.77;;;5.90;;
75603;SDS011;64187;51.010;13.792;2023-04-07T06:23:22;7.28;;;5.15;;
75603;SDS011;64187;51.010;13.792;2023-04-07T06:28:21;7.38;;;6.05;;
75603;SDS011;64187;51.010;13.792;2023-04-07T06:33:21;8.07;;;6.18;;
75603;SDS011;64187;51.010;13.792;2023-04-07T06:38:23;11.38;;;7.20;;
75603;SDS011;64187;51.010;13.792;2023-04-07T06:43:21;11.40;;;6.03;;
75603;SDS011;64187;51.010;13.792;2023-04-07T06:48:26;9.00;;;5.85;;
75603;SDS011;64187;51.010;13.792;2023-04-07T06:53:25;10.10;;;6.53;;
75603;SDS011;64187;51.010;13.792;2023-04-07T06:58:24;12.00;;;6.72;;
75603;SDS011;64187;51.010;13.792;2023-04-07T07:03:23;7.47;;;5.93;;
75603;SDS011;64187;51.010;13.792;2023-04-07T07:08:25;9.48;;;6.13;;
75603;SDS011;64187;51.010;13.792;2023-04-07T07:13:25;9.55;;;6.55;;
75603;SDS011;64187;51.010;13.792;2023-04-07T07:18:24;9.48;;;6.80;;
75603;SDS011;64187;51.010;13.792;2023-04-07T07:23:23;11.50;;;7.47;;
75603;SDS011;64187;51.010;13.792;2023-04-07T07:28:22;8.20;;;6.05;;
75603;SDS011;64187;51.010;13.792;2023-04-07T07:33:21;7.60;;;4.30;;
75603;SDS011;64187;51.010;13.792;2023-04-07T07:38:20;9.52;;;5.70;;
75603;SDS011;64187;51.010;13.792;2023-04-07T07:43:19;8.35;;;5.47;;
75603;SDS011;64187;51.010;13.792;2023-04-07T07:48:17;9.13;;;6.50;;
75603;SDS011;64187;51.010;13.792;2023-04-07T07:53:16;11.13;;;7.50;;
75603;SDS011;64187;51.010;13.792;2023-04-07T07:58:16;10.15;;;7.07;;
75603;SDS011;64187;51.010;13.792;2023-04-07T08:03:15;10.20;;;7.35;;
75603;SDS011;64187;51.010;13.792;2023-04-07T08:08:14;9.15;;;7.50;;
75603;SDS011;64187;51.010;13.792;2023-04-07T08:13:13;10.68;;;7.03;;
75603;SDS011;64187;51.010;13.792;2023-04-07T08:18:12;9.93;;;7.25;;
75603;SDS011;64187;51.010;13.792;2023-04-07T08:23:11;10.10;;;7.40;;
75603;SDS011;64187;51.010;13.792;2023-04-07T08:28:10;9.95;;;7.43;;
75603;SDS011;64187;51.010;13.792;2023-04-07T08:33:09;12.10;;;8.13;;
75603;SDS011;64187;51.010;13.792;2023-04-07T08:38:08;12.75;;;7.95;;
75603;SDS011;64187;51.010;13.792;2023-04-07T08:43:07;10.43;;;8.18;;
75603;SDS011;64187;51.010;13.792;2023-04-07T08:48:10;12.43;;;7.72;;
75603;SDS011;64187;51.010;13.792;2023-04-07T08:53:15;13.85;;;9.23;;
75603;SDS011;64187;51.010;13.792;2023-04-07T08:58:20;9.82;;;8.00;;
75603;SDS011;64187;51.010;13.792;2023-04-07T09:03:19;11.82;;;7.80;;
75603;SDS011;64187;51.010;13.792;2023-04-07T09:08:20;10.73;;;7.55;;
75603;SDS011;64187;51.010;13.792;2023-04-07T09:13:19;10.40;;;8.30;;
75603;SDS011;64187;51.010;13.792;2023-04-07T09:18:18;11.02;;;7.78;;
75603;SDS011;64187;51.010;13.792;2023-04-07T09:23:27;12.00;;;8.00;;
75603;SDS011;64187;51.010;13.792;2023-04-07T09:28:42;10.73;;;7.60;;
75603;SDS011;64187;51.010;13.792;2023-04-07T09:33:44;11.23;;;8.05;;
75603;SDS011;64187;51.010;13.792;2023-04-07T09:38:44;10.55;;;7.18;;
75603;SDS011;64187;51.010;13.792;2023-04-07T09:43:44;10.98;;;8.00;;
75603;SDS011;64187;51.010;13.792;2023-04-07T09:48:45;10.43;;;7.15;;
75603;SDS011;64187;51.010;13.792;2023-04-07T09:53:45;12.48;;;7.35;;
75603;SDS011;64187;51.010;13.792;2023-04-07T09:58:50;11.38;;;7.13;;
75603;SDS011;64187;51.010;13.792;2023-04-07T10:03:49;9.50;;;6.70;;
75603;SDS011;64187;51.010;13.792;2023-04-07T10:08:49;11.02;;;6.78;;
75603;SDS011;64187;51.010;13.792;2023-04-07T10:13:48;10.27;;;6.63;;
75603;SDS011;64187;51.010;13.792;2023-04-07T10:18:47;9.13;;;6.90;;
75603;SDS011;64187;51.010;13.792;2023-04-07T10:28:59;8.77;;;5.30;;
75603;SDS011;64187;51.010;13.792;2023-04-07T10:34:01;9.30;;;5.95;;
75603;SDS011;64187;51.010;13.792;2023-04-07T10:44:09;10.73;;;6.18;;
75603;SDS011;64187;51.010;13.792;2023-04-07T10:49:28;7.55;;;4.53;;
75603;SDS011;64187;51.010;13.792;2023-04-07T10:54:27;6.68;;;4.53;;
75603;SDS011;64187;51.010;13.792;2023-04-07T10:59:27;8.25;;;5.03;;
75603;SDS011;64187;51.010;13.792;2023-04-07T11:09:39;8.38;;;4.75;;
75603;SDS011;64187;51.010;13.792;2023-04-07T11:14:38;7.82;;;5.65;;
75603;SDS011;64187;51.010;13.792;2023-04-07T11:19:51;7.07;;;4.68;;
75603;SDS011;64187;51.010;13.792;2023-04-07T11:24:51;8.15;;;5.63;;
75603;SDS011;64187;51.010;13.792;2023-04-07T11:29:49;9.68;;;5.30;;
75603;SDS011;64187;51.010;13.792;2023-04-07T11:34:48;6.45;;;4.75;;
75603;SDS011;64187;51.010;13.792;2023-04-07T11:39:54;7.63;;;5.13;;
75603;SDS011;64187;51.010;13.792;2023-04-07T11:44:54;8.30;;;5.13;;
75603;SDS011;64187;51.010;13.792;2023-04-07T11:49:53;5.97;;;5.20;;
75603;SDS011;64187;51.010;13.792;2023-04-07T11:54:52;6.38;;;5.40;;
75603;SDS011;64187;51.010;13.792;2023-04-07T12:00:04;8.13;;;6.05;;
75603;SDS011;64187;51.010;13.792;2023-04-07T12:05:06;7.32;;;5.68;;
75603;SDS011;64187;51.010;13.792;2023-04-07T12:10:18;7.60;;;5.07;;
75603;SDS011;64187;51.010;13.792;2023-04-07T12:15:18;8.20;;;5.70;;
75603;SDS011;64187;51.010;13.792;2023-04-07T12:20:19;9.60;;;6.68;;
75603;SDS011;64187;51.010;13.792;2023-04-07T12:25:17;9.35;;;6.30;;
75603;SDS011;64187;51.010;13.792;2023-04-07T12:30:16;11.05;;;6.25;;
75603;SDS011;64187;51.010;13.792;2023-04-07T12:35:15;8.48;;;6.25;;
75603;SDS011;64187;51.010;13.792;2023-04-07T12:40:14;7.78;;;5.03;;
75603;SDS011;64187;51.010;13.792;2023-04-07T12:45:15;10.02;;;7.25;;
75603;SDS011;64187;51.010;13.792;2023-04-07T12:50:14;9.52;;;6.65;;
75603;SDS011;64187;51.010;13.792;2023-04-07T12:55:13;10.38;;;6.88;;
75603;SDS011;64187;51.010;13.792;2023-04-07T13:00:12;11.20;;;7.68;;
75603;SDS011;64187;51.010;13.792;2023-04-07T13:05:11;11.32;;;8.20;;
75603;SDS011;64187;51.010;13.792;2023-04-07T13:10:10;10.85;;;7.25;;
75603;SDS011;64187;51.010;13.792;2023-04-07T13:15:09;12.90;;;8.50;;
75603;SDS011;64187;51.010;13.792;2023-04-07T13:20:08;10.35;;;6.70;;
75603;SDS011;64187;51.010;13.792;2023-04-07T13:25:08;7.72;;;6.70;;
75603;SDS011;64187;51.010;13.792;2023-04-07T13:30:07;7.80;;;6.43;;
75603;SDS011;64187;51.010;13.792;2023-04-07T13:35:06;9.73;;;7.55;;
75603;SDS011;64187;51.010;13.792;2023-04-07T13:40:05;10.27;;;7.05;;
75603;SDS011;64187;51.010;13.792;2023-04-07T13:45:05;8.88;;;6.85;;
75603;SDS011;64187;51.010;13.792;2023-04-07T13:50:05;9.75;;;7.30;;
75603;SDS011;64187;51.010;13.792;2023-04-07T13:55:04;8.85;;;6.43;;
75603;SDS011;64187;51.010;13.792;2023-04-07T14:00:04;8.60;;;6.30;;
75603;SDS011;64187;51.010;13.792;2023-04-07T14:05:06;8.30;;;6.18;;
75603;SDS011;64187;51.010;13.792;2023-04-07T14:10:05;9.75;;;6.82;;
75603;SDS011;64187;51.010;13.792;2023-04-07T14:15:08;10.10;;;7.10;;
75603;SDS011;64187;51.010;13.792;2023-04-07T14:20:07;9.18;;;5.93;;
75603;SDS011;64187;51.010;13.792;2023-04-07T14:25:06;8.05;;;6.88;;
75603;SDS011;64187;51.010;13.792;2023-04-07T14:30:05;8.70;;;5.47;;
75603;SDS011;64187;51.010;13.792;2023-04-07T14:35:05;7.68;;;5.47;;
75603;SDS011;64187;51.010;13.792;2023-04-07T14:40:04;9.13;;;6.20;;
75603;SDS011;64187;51.010;13.792;2023-04-07T14:45:05;8.35;;;6.05;;
75603;SDS011;64187;51.010;13.792;2023-04-07T14:50:04;9.75;;;6.18;;
75603;SDS011;64187;51.010;13.792;2023-04-07T14:55:04;7.25;;;5.65;;
75603;SDS011;64187;51.010;13.792;2023-04-07T15:00:03;8.20;;;5.80;;
75603;SDS011;64187;51.010;13.792;2023-04-07T15:05:05;6.53;;;5.38;;
75603;SDS011;64187;51.010;13.792;2023-04-07T15:10:04;8.02;;;5.70;;
75603;SDS011;64187;51.010;13.792;2023-04-07T15:15:04;11.15;;;5.90;;
75603;SDS011;64187;51.010;13.792;2023-04-07T15:20:04;8.48;;;6.47;;
75603;SDS011;64187;51.010;13.792;2023-04-07T15:25:03;9.60;;;6.90;;
75603;SDS011;64187;51.010;13.792;2023-04-07T15:30:03;10.15;;;6.68;;
75603;SDS011;64187;51.010;13.792;2023-04-07T15:35:02;8.80;;;6.90;;
75603;SDS011;64187;51.010;13.792;2023-04-07T15:40:01;10.50;;;6.75;;
75603;SDS011;64187;51.010;13.792;2023-04-07T15:45:00;9.48;;;7.05;;
75603;SDS011;64187;51.010;13.792;2023-04-07T15:49:59;8.85;;;6.55;;
75603;SDS011;64187;51.010;13.792;2023-04-07T15:54:58;11.75;;;7.05;;
75603;SDS011;64187;51.010;13.792;2023-04-07T15:59:57;10.85;;;6.00;;
75603;SDS011;64187;51.010;13.792;2023-04-07T16:04:56;10.15;;;6.60;;
75603;SDS011;64187;51.010;13.792;2023-04-07T16:09:55;10.23;;;6.90;;
75603;SDS011;64187;51.010;13.792;2023-04-07T16:14:53;10.38;;;7.13;;
75603;SDS011;64187;51.010;13.792;2023-04-07T16:19:52;10.63;;;7.00;;
75603;SDS011;64187;51.010;13.792;2023-04-07T16:24:51;10.73;;;7.95;;
75603;SDS011;64187;51.010;13.792;2023-04-07T16:29:50;12.00;;;8.45;;
75603;SDS011;64187;51.010;13.792;2023-04-07T16:34:49;10.68;;;8.80;;
75603;SDS011;64187;51.010;13.792;2023-04-07T16:39:48;9.90;;;7.72;;
75603;SDS011;64187;51.010;13.792;2023-04-07T16:44:47;11.63;;;7.43;;
75603;SDS011;64187;51.010;13.792;2023-04-07T16:49:46;12.90;;;7.72;;
75603;SDS011;64187;51.010;13.792;2023-04-07T16:54:45;9.85;;;7.30;;
75603;SDS011;64187;51.010;13.792;2023-04-07T16:59:44;10.13;;;6.95;;
75603;SDS011;64187;51.010;13.792;2023-04-07T17:04:43;8.90;;;6.50;;
75603;SDS011;64187;51.010;13.792;2023-04-07T17:09:42;9.80;;;6.15;;
75603;SDS011;64187;51.010;13.792;2023-04-07T17:14:41;8.95;;;6.18;;
75603;SDS011;64187;51.010;13.792;2023-04-07T17:19:40;8.48;;;6.65;;
75603;SDS011;64187;51.010;13.792;2023-04-07T17:24:39;11.40;;;7.05;;
75603;SDS011;64187;51.010;13.792;2023-04-07T17:29:38;8.63;;;6.00;;
75603;SDS011;64187;51.010;13.792;2023-04-07T17:34:37;9.27;;;6.15;;
75603;SDS011;64187;51.010;13.792;2023-04-07T17:39:35;12.10;;;7.25;;
75603;SDS011;64187;51.010;13.792;2023-04-07T17:44:34;8.20;;;6.30;;
75603;SDS011;64187;51.010;13.792;2023-04-07T17:49:33;8.95;;;6.13;;
75603;SDS011;64187;51.010;13.792;2023-04-07T17:54:32;9.95;;;7.40;;
75603;SDS011;64187;51.010;13.792;2023-04-07T17:59:31;9.77;;;6.20;;
75603;SDS011;64187;51.010;13.792;2023-04-07T18:04:30;9.95;;;6.93;;
75603;SDS011;64187;51.010;13.792;2023-04-07T18:09:29;12.18;;;8.77;;
75603;SDS011;64187;51.010;13.792;2023-04-07T18:14:28;11.60;;;8.27;;
75603;SDS011;64187;51.010;13.792;2023-04-07T18:19:27;9.50;;;7.25;;
75603;SDS011;64187;51.010;13.792;2023-04-07T18:24:27;11.38;;;7.38;;
75603;SDS011;64187;51.010;13.792;2023-04-07T18:29:26;11.80;;;8.27;;
75603;SDS011;64187;51.010;13.792;2023-04-07T18:34:25;11.77;;;8.20;;
75603;SDS011;64187;51.010;13.792;2023-04-07T18:39:24;10.38;;;7.30;;
75603;SDS011;64187;51.010;13.792;2023-04-07T18:44:25;11.95;;;7.53;;
75603;SDS011;64187;51.010;13.792;2023-04-07T18:49:26;8.85;;;6.75;;
75603;SDS011;64187;51.010;13.792;2023-04-07T18:54:26;9.13;;;6.43;;
75603;SDS011;64187;51.010;13.792;2023-04-07T18:59:25;11.23;;;7.63;;
75603;SDS011;64187;51.010;13.792;2023-04-07T19:04:25;11.07;;;7.72;;
75603;SDS011;64187;51.010;13.792;2023-04-07T19:09:23;15.23;;;9.20;;
75603;SDS011;64187;51.010;13.792;2023-04-07T19:14:23;11.95;;;7.72;;
75603;SDS011;64187;51.010;13.792;2023-04-07T19:19:22;13.10;;;8.65;;
75603;SDS011;64187;51.010;13.792;2023-04-07T19:24:21;11.88;;;7.30;;
75603;SDS011;64187;51.010;13.792;2023-04-07T19:29:20;22.50;;;12.80;;
75603;SDS011;64187;51.010;13.792;2023-04-07T19:34:19;12.27;;;8.35;;
75603;SDS011;64187;51.010;13.792;2023-04-07T19:39:18;12.95;;;9.25;;
75603;SDS011;64187;51.010;13.792;2023-04-07T19:44:17;14.30;;;10.25;;
75603;SDS011;64187;51.010;13.792;2023-04-07T19:49:16;13.15;;;9.50;;
75603;SDS011;64187;51.010;13.792;2023-04-07T19:54:15;10.80;;;7.95;;
75603;SDS011;64187;51.010;13.792;2023-04-07T19:59:14;13.32;;;8.25;;
75603;SDS011;64187;51.010;13.792;2023-04-07T20:04:13;14.45;;;7.97;;
75603;SDS011;64187;51.010;13.792;2023-04-07T20:09:12;11.98;;;8.45;;
75603;SDS011;64187;51.010;13.792;2023-04-07T20:14:11;11.55;;;8.27;;
75603;SDS011;64187;51.010;13.792;2023-04-07T20:19:10;15.27;;;7.18;;
75603;SDS011;64187;51.010;13.792;2023-04-07T20:24:09;9.73;;;7.55;;
75603;SDS011;64187;51.010;13.792;2023-04-07T20:29:09;9.45;;;7.05;;
75603;SDS011;64187;51.010;13.792;2023-04-07T20:34:08;11.80;;;6.63;;
75603;SDS011;64187;51.010;13.792;2023-04-07T20:39:07;10.25;;;7.03;;
75603;SDS011;64187;51.010;13.792;2023-04-07T20:44:05;11.45;;;7.47;;
75603;SDS011;64187;51.010;13.792;2023-04-07T20:49:04;10.60;;;7.07;;
75603;SDS011;64187;51.010;13.792;2023-04-07T20:54:05;7.55;;;6.15;;
75603;SDS011;64187;51.010;13.792;2023-04-07T20:59:05;8.95;;;5.60;;
75603;SDS011;64187;51.010;13.792;2023-04-07T21:04:04;9.88;;;6.53;;
75603;SDS011;64187;51.010;13.792;2023-04-07T21:09:04;7.88;;;6.57;;
75603;SDS011;64187;51.010;13.792;2023-04-07T21:14:04;8.80;;;6.13;;
75603;SDS011;64187;51.010;13.792;2023-04-07T21:19:03;8.07;;;6.68;;
75603;SDS011;64187;51.010;13.792;2023-04-07T21:24:02;11.32;;;6.80;;
75603;SDS011;64187;51.010;13.792;2023-04-07T21:29:01;11.80;;;7.30;;
75603;SDS011;64187;51.010;13.792;2023-04-07T21:34:00;11.80;;;8.27;;
75603;SDS011;64187;51.010;13.792;2023-04-07T21:38:59;12.38;;;8.65;;
75603;SDS011;64187;51.010;13.792;2023-04-07T21:43:58;17.05;;;10.90;;
75603;SDS011;64187;51.010;13.792;2023-04-07T21:48:56;11.80;;;8.55;;
75603;SDS011;64187;51.010;13.792;2023-04-07T21:53:55;12.65;;;8.15;;
75603;SDS011;64187;51.010;13.792;2023-04-07T21:58:54;11.23;;;7.68;;
75603;SDS011;64187;51.010;13.792;2023-04-07T22:03:53;11.15;;;7.45;;
75603;SDS011;64187;51.010;13.792;2023-04-07T22:08:52;12.00;;;7.85;;
75603;SDS011;64187;51.010;13.792;2023-04-07T22:13:59;13.00;;;7.68;;
75603;SDS011;64187;51.010;13.792;2023-04-07T22:18:58;11.13;;;8.13;;
75603;SDS011;64187;51.010;13.792;2023-04-07T22:23:57;13.18;;;8.27;;
75603;SDS011;64187;51.010;13.792;2023-04-07T22:28:55;13.02;;;8.43;;
75603;SDS011;64187;51.010;13.792;2023-04-07T22:33:54;11.20;;;7.20;;
75603;SDS011;64187;51.010;13.792;2023-04-07T22:38:53;10.73;;;7.70;;
75603;SDS011;64187;51.010;13.792;2023-04-07T22:43:53;13.48;;;7.90;;
75603;SDS011;64187;51.010;13.792;2023-04-07T22:48:52;12.32;;;7.78;;
75603;SDS011;64187;51.010;13.792;2023-04-07T22:53:51;9.95;;;7.47;;
75603;SDS011;64187;51.010;13.792;2023-04-07T22:58:50;12.38;;;7.70;;
75603;SDS011;64187;51.010;13.792;2023-04-07T23:03:49;14.05;;;9.02;;
75603;SDS011;64187;51.010;13.792;2023-04-07T23:08:48;12.13;;;9.18;;
75603;SDS011;64187;51.010;13.792;2023-04-07T23:13:47;13.57;;;9.15;;
75603;SDS011;64187;51.010;13.792;2023-04-07T23:18:46;13.68;;;8.82;;
75603;SDS011;64187;51.010;13.792;2023-04-07T23:23:45;13.63;;;9.15;;
75603;SDS011;64187;51.010;13.792;2023-04-07T23:28:44;13.75;;;9.80;;
75603;SDS011;64187;51.010;13.792;2023-04-07T23:33:43;13.88;;;9.40;;
75603;SDS011;64187;51.010;13.792;2023-04-07T23:38:42;13.07;;;8.15;;
75603;SDS011;64187;51.010;13.792;2023-04-07T23:43:41;15.82;;;9.80;;
75603;SDS011;64187;51.010;13.792;2023-04-07T23:48:40;14.27;;;9.07;;
75603;SDS011;64187;51.010;13.792;2023-04-07T23:53:39;15.80;;;9.45;;
75603;SDS011;64187;51.010;13.792;2023-04-07T23:58:38;14.13;;;8.13;;
